sensor_id;sensor_type;location;lat;lon;timestamp;P1;durP1;ratioP1;P2;durP2;ratioP2
37069;SDS011;22984;48.862;9.320;2022-11-13T00:00:53;397.13;;;72.03;;
37069;SDS011;22984;48.862;9.320;2022-11-13T00:03:19;311.55;;;62.47;;
37069;SDS011;22984;48.862;9.320;2022-11-13T00:05:46;283.90;;;65.28;;
37069;SDS011;22984;48.862;9.320;2022-11-13T00:08:12;357.52;;;72.22;;
37069;SDS011;22984;48.862;9.320;2022-11-13T00:10:38;325.45;;;68.60;;
37069;SDS011;22984;48.862;9.320;2022-11-13T00:13:04;404.00;;;76.85;;
37069;SDS011;22984;48.862;9.320;2022-11-13T00:15:30;420.95;;;78.07;;
37069;SDS011;22984;48.862;9.320;2022-11-13T00:17:59;463.80;;;84.07;;
37069;SDS011;22984;48.862;9.320;2022-11-13T00:20:25;395.77;;;77.75;;
37069;SDS011;22984;48.862;9.320;2022-11-13T00:22:51;377.85;;;76.45;;
37069;SDS011;22984;48.862;9.320;2022-11-13T00:25:17;474.55;;;83.10;;
37069;SDS011;22984;48.862;9.320;2022-11-13T00:27:43;410.90;;;79.03;;
37069;SDS011;22984;48.862;9.320;2022-11-13T00:30:09;395.38;;;79.82;;
37069;SDS011;22984;48.862;9.320;2022-11-13T00:32:35;456.95;;;83.53;;
37069;SDS011;22984;48.862;9.320;2022-11-13T00:35:02;297.20;;;71.68;;
37069;SDS011;22984;48.862;9.320;2022-11-13T00:37:28;299.20;;;66.03;;
37069;SDS011;22984;48.862;9.320;2022-11-13T00:39:54;270.70;;;69.40;;
37069;SDS011;22984;48.862;9.320;2022-11-13T00:42:20;220.25;;;61.85;;
37069;SDS011;22984;48.862;9.320;2022-11-13T00:44:46;252.90;;;67.13;;
37069;SDS011;22984;48.862;9.320;2022-11-13T00:47:12;249.88;;;66.05;;
37069;SDS011;22984;48.862;9.320;2022-11-13T00:49:38;285.10;;;73.57;;
37069;SDS011;22984;48.862;9.320;2022-11-13T00:52:04;292.70;;;73.65;;
37069;SDS011;22984;48.862;9.320;2022-11-13T00:54:30;267.83;;;65.80;;
37069;SDS011;22984;48.862;9.320;2022-11-13T00:56:56;283.17;;;61.38;;
37069;SDS011;22984;48.862;9.320;2022-11-13T00:59:22;261.37;;;63.93;;
37069;SDS011;22984;48.862;9.320;2022-11-13T01:01:48;503.92;;;67.70;;
37069;SDS011;22984;48.862;9.320;2022-11-13T01:04:14;471.67;;;70.32;;
37069;SDS011;22984;48.862;9.320;2022-11-13T01:06:40;395.52;;;68.28;;
37069;SDS011;22984;48.862;9.320;2022-11-13T01:09:06;344.70;;;70.55;;
37069;SDS011;22984;48.862;9.320;2022-11-13T01:11:32;332.33;;;72.13;;
37069;SDS011;22984;48.862;9.320;2022-11-13T01:13:58;287.52;;;63.22;;
37069;SDS011;22984;48.862;9.320;2022-11-13T01:16:25;294.47;;;62.00;;
37069;SDS011;22984;48.862;9.320;2022-11-13T01:18:55;267.95;;;56.78;;
37069;SDS011;22984;48.862;9.320;2022-11-13T01:21:22;757.20;;;77.28;;
37069;SDS011;22984;48.862;9.320;2022-11-13T01:23:48;617.90;;;70.10;;
37069;SDS011;22984;48.862;9.320;2022-11-13T01:28:41;564.03;;;70.00;;
37069;SDS011;22984;48.862;9.320;2022-11-13T01:31:09;487.95;;;66.90;;
37069;SDS011;22984;48.862;9.320;2022-11-13T01:33:35;527.72;;;61.58;;
37069;SDS011;22984;48.862;9.320;2022-11-13T01:36:03;524.97;;;59.45;;
37069;SDS011;22984;48.862;9.320;2022-11-13T01:38:29;534.33;;;64.80;;
37069;SDS011;22984;48.862;9.320;2022-11-13T01:40:55;401.10;;;52.17;;
37069;SDS011;22984;48.862;9.320;2022-11-13T01:48:22;409.30;;;51.42;;
37069;SDS011;22984;48.862;9.320;2022-11-13T01:50:49;372.30;;;52.80;;
37069;SDS011;22984;48.862;9.320;2022-11-13T01:53:15;491.70;;;56.60;;
37069;SDS011;22984;48.862;9.320;2022-11-13T01:55:41;726.03;;;74.60;;
37069;SDS011;22984;48.862;9.320;2022-11-13T01:58:07;829.75;;;77.45;;
37069;SDS011;22984;48.862;9.320;2022-11-13T02:00:34;936.08;;;87.50;;
37069;SDS011;22984;48.862;9.320;2022-11-13T02:03:00;672.00;;;72.60;;
37069;SDS011;22984;48.862;9.320;2022-11-13T02:05:26;858.30;;;81.45;;
37069;SDS011;22984;48.862;9.320;2022-11-13T02:07:52;794.63;;;77.68;;
37069;SDS011;22984;48.862;9.320;2022-11-13T02:10:18;601.63;;;62.58;;
37069;SDS011;22984;48.862;9.320;2022-11-13T02:12:48;825.30;;;65.20;;
37069;SDS011;22984;48.862;9.320;2022-11-13T02:15:14;713.10;;;57.35;;
37069;SDS011;22984;48.862;9.320;2022-11-13T02:20:09;791.63;;;64.37;;
37069;SDS011;22984;48.862;9.320;2022-11-13T02:25:07;799.97;;;72.78;;
37069;SDS011;22984;48.862;9.320;2022-11-13T02:27:35;815.15;;;69.32;;
37069;SDS011;22984;48.862;9.320;2022-11-13T02:32:41;807.33;;;65.10;;
37069;SDS011;22984;48.862;9.320;2022-11-13T02:35:08;764.83;;;63.95;;
37069;SDS011;22984;48.862;9.320;2022-11-13T02:37:34;785.22;;;66.80;;
37069;SDS011;22984;48.862;9.320;2022-11-13T02:40:00;870.13;;;70.72;;
37069;SDS011;22984;48.862;9.320;2022-11-13T02:42:26;958.80;;;76.90;;
37069;SDS011;22984;48.862;9.320;2022-11-13T02:44:52;790.50;;;69.50;;
37069;SDS011;22984;48.862;9.320;2022-11-13T02:47:18;668.47;;;54.95;;
37069;SDS011;22984;48.862;9.320;2022-11-13T02:49:44;724.13;;;56.65;;
37069;SDS011;22984;48.862;9.320;2022-11-13T02:52:10;700.03;;;64.65;;
37069;SDS011;22984;48.862;9.320;2022-11-13T02:54:36;655.20;;;59.58;;
37069;SDS011;22984;48.862;9.320;2022-11-13T02:57:02;564.20;;;49.75;;
37069;SDS011;22984;48.862;9.320;2022-11-13T02:59:28;648.90;;;56.30;;
37069;SDS011;22984;48.862;9.320;2022-11-13T03:01:54;704.72;;;60.63;;
37069;SDS011;22984;48.862;9.320;2022-11-13T03:04:20;549.70;;;51.78;;
37069;SDS011;22984;48.862;9.320;2022-11-13T03:06:46;633.85;;;65.97;;
37069;SDS011;22984;48.862;9.320;2022-11-13T03:09:12;583.13;;;60.35;;
37069;SDS011;22984;48.862;9.320;2022-11-13T03:11:38;526.13;;;54.35;;
37069;SDS011;22984;48.862;9.320;2022-11-13T03:14:04;475.92;;;48.08;;
37069;SDS011;22984;48.862;9.320;2022-11-13T03:16:30;481.83;;;51.67;;
37069;SDS011;22984;48.862;9.320;2022-11-13T03:18:56;563.90;;;55.87;;
37069;SDS011;22984;48.862;9.320;2022-11-13T03:21:22;458.65;;;50.85;;
37069;SDS011;22984;48.862;9.320;2022-11-13T03:23:48;430.00;;;49.10;;
37069;SDS011;22984;48.862;9.320;2022-11-13T03:26:15;393.58;;;46.13;;
37069;SDS011;22984;48.862;9.320;2022-11-13T03:28:42;410.23;;;49.17;;
37069;SDS011;22984;48.862;9.320;2022-11-13T03:31:08;489.52;;;55.90;;
37069;SDS011;22984;48.862;9.320;2022-11-13T03:33:34;406.60;;;50.45;;
37069;SDS011;22984;48.862;9.320;2022-11-13T03:36:00;444.80;;;52.10;;
37069;SDS011;22984;48.862;9.320;2022-11-13T03:38:26;478.38;;;52.45;;
37069;SDS011;22984;48.862;9.320;2022-11-13T03:40:52;473.02;;;56.15;;
37069;SDS011;22984;48.862;9.320;2022-11-13T03:43:18;506.57;;;51.53;;
37069;SDS011;22984;48.862;9.320;2022-11-13T03:45:44;554.63;;;61.33;;
37069;SDS011;22984;48.862;9.320;2022-11-13T03:48:11;411.70;;;52.30;;
37069;SDS011;22984;48.862;9.320;2022-11-13T03:50:38;370.17;;;46.73;;
37069;SDS011;22984;48.862;9.320;2022-11-13T03:53:04;387.83;;;47.23;;
37069;SDS011;22984;48.862;9.320;2022-11-13T03:55:30;338.63;;;48.75;;
37069;SDS011;22984;48.862;9.320;2022-11-13T03:57:56;517.67;;;55.13;;
37069;SDS011;22984;48.862;9.320;2022-11-13T04:00:24;535.13;;;56.40;;
37069;SDS011;22984;48.862;9.320;2022-11-13T04:02:50;716.72;;;64.43;;
37069;SDS011;22984;48.862;9.320;2022-11-13T04:05:16;594.45;;;68.65;;
37069;SDS011;22984;48.862;9.320;2022-11-13T04:07:42;449.08;;;55.38;;
37069;SDS011;22984;48.862;9.320;2022-11-13T04:10:08;397.05;;;51.67;;
37069;SDS011;22984;48.862;9.320;2022-11-13T04:12:34;437.08;;;56.60;;
37069;SDS011;22984;48.862;9.320;2022-11-13T04:15:00;340.77;;;49.80;;
37069;SDS011;22984;48.862;9.320;2022-11-13T04:17:26;453.67;;;75.22;;
37069;SDS011;22984;48.862;9.320;2022-11-13T04:19:52;428.57;;;61.63;;
37069;SDS011;22984;48.862;9.320;2022-11-13T04:22:18;513.65;;;59.90;;
37069;SDS011;22984;48.862;9.320;2022-11-13T04:24:44;530.67;;;62.60;;
37069;SDS011;22984;48.862;9.320;2022-11-13T04:27:10;559.90;;;64.13;;
37069;SDS011;22984;48.862;9.320;2022-11-13T04:29:36;547.22;;;56.65;;
37069;SDS011;22984;48.862;9.320;2022-11-13T04:32:02;498.58;;;47.63;;
37069;SDS011;22984;48.862;9.320;2022-11-13T04:34:28;483.58;;;49.30;;
37069;SDS011;22984;48.862;9.320;2022-11-13T04:36:54;747.20;;;66.03;;
37069;SDS011;22984;48.862;9.320;2022-11-13T04:39:20;634.80;;;62.20;;
37069;SDS011;22984;48.862;9.320;2022-11-13T04:41:47;830.38;;;69.57;;
37069;SDS011;22984;48.862;9.320;2022-11-13T04:44:31;859.88;;;72.13;;
37069;SDS011;22984;48.862;9.320;2022-11-13T04:46:57;923.63;;;77.05;;
37069;SDS011;22984;48.862;9.320;2022-11-13T04:49:23;883.15;;;72.00;;
37069;SDS011;22984;48.862;9.320;2022-11-13T04:51:49;737.47;;;74.35;;
37069;SDS011;22984;48.862;9.320;2022-11-13T04:54:15;755.47;;;70.85;;
37069;SDS011;22984;48.862;9.320;2022-11-13T04:56:41;791.95;;;66.15;;
37069;SDS011;22984;48.862;9.320;2022-11-13T04:59:07;744.17;;;64.35;;
37069;SDS011;22984;48.862;9.320;2022-11-13T05:01:34;700.47;;;59.03;;
37069;SDS011;22984;48.862;9.320;2022-11-13T05:04:00;808.88;;;68.03;;
37069;SDS011;22984;48.862;9.320;2022-11-13T05:06:27;843.47;;;66.20;;
37069;SDS011;22984;48.862;9.320;2022-11-13T05:08:53;877.75;;;61.35;;
37069;SDS011;22984;48.862;9.320;2022-11-13T05:11:19;902.55;;;66.65;;
37069;SDS011;22984;48.862;9.320;2022-11-13T05:13:45;675.72;;;59.08;;
37069;SDS011;22984;48.862;9.320;2022-11-13T05:16:12;764.67;;;62.20;;
37069;SDS011;22984;48.862;9.320;2022-11-13T05:18:38;600.13;;;63.58;;
37069;SDS011;22984;48.862;9.320;2022-11-13T05:21:04;639.03;;;60.80;;
37069;SDS011;22984;48.862;9.320;2022-11-13T05:23:31;763.17;;;76.70;;
37069;SDS011;22984;48.862;9.320;2022-11-13T05:26:01;634.85;;;67.85;;
37069;SDS011;22984;48.862;9.320;2022-11-13T05:28:27;634.67;;;70.55;;
37069;SDS011;22984;48.862;9.320;2022-11-13T05:31:01;564.17;;;62.43;;
37069;SDS011;22984;48.862;9.320;2022-11-13T05:33:27;854.25;;;64.85;;
37069;SDS011;22984;48.862;9.320;2022-11-13T05:35:53;895.13;;;72.50;;
37069;SDS011;22984;48.862;9.320;2022-11-13T05:38:19;877.25;;;60.92;;
37069;SDS011;22984;48.862;9.320;2022-11-13T05:40:45;786.03;;;61.03;;
37069;SDS011;22984;48.862;9.320;2022-11-13T05:43:11;792.13;;;60.75;;
37069;SDS011;22984;48.862;9.320;2022-11-13T05:45:37;918.83;;;74.95;;
37069;SDS011;22984;48.862;9.320;2022-11-13T05:48:03;865.85;;;69.70;;
37069;SDS011;22984;48.862;9.320;2022-11-13T05:50:29;537.50;;;57.28;;
37069;SDS011;22984;48.862;9.320;2022-11-13T05:52:55;973.08;;;68.05;;
37069;SDS011;22984;48.862;9.320;2022-11-13T05:55:22;805.78;;;61.80;;
37069;SDS011;22984;48.862;9.320;2022-11-13T05:57:48;926.17;;;66.10;;
37069;SDS011;22984;48.862;9.320;2022-11-13T06:00:14;828.47;;;61.28;;
37069;SDS011;22984;48.862;9.320;2022-11-13T06:02:40;702.60;;;52.77;;
37069;SDS011;22984;48.862;9.320;2022-11-13T06:05:06;828.95;;;67.30;;
37069;SDS011;22984;48.862;9.320;2022-11-13T06:07:32;819.67;;;70.15;;
37069;SDS011;22984;48.862;9.320;2022-11-13T06:09:58;842.05;;;61.28;;
37069;SDS011;22984;48.862;9.320;2022-11-13T06:12:24;696.85;;;55.05;;
37069;SDS011;22984;48.862;9.320;2022-11-13T06:14:50;842.67;;;70.28;;
37069;SDS011;22984;48.862;9.320;2022-11-13T06:17:16;377.13;;;42.63;;
37069;SDS011;22984;48.862;9.320;2022-11-13T06:19:42;1164.35;;;80.00;;
37069;SDS011;22984;48.862;9.320;2022-11-13T06:22:08;814.42;;;67.88;;
37069;SDS011;22984;48.862;9.320;2022-11-13T06:24:34;566.78;;;48.55;;
37069;SDS011;22984;48.862;9.320;2022-11-13T06:27:00;806.63;;;65.95;;
37069;SDS011;22984;48.862;9.320;2022-11-13T06:29:26;947.78;;;75.10;;
37069;SDS011;22984;48.862;9.320;2022-11-13T06:31:52;721.78;;;65.75;;
37069;SDS011;22984;48.862;9.320;2022-11-13T06:34:18;826.42;;;68.25;;
37069;SDS011;22984;48.862;9.320;2022-11-13T06:36:45;753.15;;;65.40;;
37069;SDS011;22984;48.862;9.320;2022-11-13T06:39:11;448.15;;;47.40;;
37069;SDS011;22984;48.862;9.320;2022-11-13T06:41:37;604.00;;;57.50;;
37069;SDS011;22984;48.862;9.320;2022-11-13T06:44:03;464.75;;;46.25;;
37069;SDS011;22984;48.862;9.320;2022-11-13T06:46:30;570.75;;;52.67;;
37069;SDS011;22984;48.862;9.320;2022-11-13T06:48:56;494.10;;;45.97;;
37069;SDS011;22984;48.862;9.320;2022-11-13T06:51:23;480.00;;;48.15;;
37069;SDS011;22984;48.862;9.320;2022-11-13T06:53:49;449.60;;;44.53;;
37069;SDS011;22984;48.862;9.320;2022-11-13T06:56:15;385.63;;;38.70;;
37069;SDS011;22984;48.862;9.320;2022-11-13T06:58:42;409.17;;;44.17;;
37069;SDS011;22984;48.862;9.320;2022-11-13T07:01:09;285.90;;;34.83;;
37069;SDS011;22984;48.862;9.320;2022-11-13T07:03:35;575.95;;;47.95;;
37069;SDS011;22984;48.862;9.320;2022-11-13T07:06:02;810.50;;;56.22;;
37069;SDS011;22984;48.862;9.320;2022-11-13T07:08:28;562.97;;;52.57;;
37069;SDS011;22984;48.862;9.320;2022-11-13T07:10:55;626.85;;;50.67;;
37069;SDS011;22984;48.862;9.320;2022-11-13T07:13:21;628.63;;;53.40;;
37069;SDS011;22984;48.862;9.320;2022-11-13T07:15:48;605.20;;;57.65;;
37069;SDS011;22984;48.862;9.320;2022-11-13T07:18:14;552.13;;;54.30;;
37069;SDS011;22984;48.862;9.320;2022-11-13T07:20:40;532.28;;;52.78;;
37069;SDS011;22984;48.862;9.320;2022-11-13T07:23:06;432.38;;;46.42;;
37069;SDS011;22984;48.862;9.320;2022-11-13T07:25:32;374.95;;;41.15;;
37069;SDS011;22984;48.862;9.320;2022-11-13T07:27:58;333.38;;;32.70;;
37069;SDS011;22984;48.862;9.320;2022-11-13T07:30:24;421.92;;;37.40;;
37069;SDS011;22984;48.862;9.320;2022-11-13T07:32:50;432.90;;;35.72;;
37069;SDS011;22984;48.862;9.320;2022-11-13T07:35:16;394.75;;;38.83;;
37069;SDS011;22984;48.862;9.320;2022-11-13T07:37:43;333.73;;;36.47;;
37069;SDS011;22984;48.862;9.320;2022-11-13T07:40:09;292.83;;;36.33;;
37069;SDS011;22984;48.862;9.320;2022-11-13T07:42:35;301.15;;;36.10;;
37069;SDS011;22984;48.862;9.320;2022-11-13T07:45:02;205.68;;;29.48;;
37069;SDS011;22984;48.862;9.320;2022-11-13T07:47:28;306.17;;;36.63;;
37069;SDS011;22984;48.862;9.320;2022-11-13T07:49:54;582.90;;;48.42;;
37069;SDS011;22984;48.862;9.320;2022-11-13T07:52:20;293.45;;;33.20;;
37069;SDS011;22984;48.862;9.320;2022-11-13T07:54:46;399.52;;;34.78;;
37069;SDS011;22984;48.862;9.320;2022-11-13T07:57:12;502.98;;;39.15;;
37069;SDS011;22984;48.862;9.320;2022-11-13T07:59:38;543.15;;;38.53;;
37069;SDS011;22984;48.862;9.320;2022-11-13T08:02:05;457.80;;;37.00;;
37069;SDS011;22984;48.862;9.320;2022-11-13T08:04:31;515.47;;;41.75;;
37069;SDS011;22984;48.862;9.320;2022-11-13T08:06:57;476.30;;;36.13;;
37069;SDS011;22984;48.862;9.320;2022-11-13T08:09:23;443.38;;;39.08;;
37069;SDS011;22984;48.862;9.320;2022-11-13T08:11:49;468.52;;;36.28;;
37069;SDS011;22984;48.862;9.320;2022-11-13T08:14:15;310.77;;;28.37;;
37069;SDS011;22984;48.862;9.320;2022-11-13T08:16:41;299.70;;;27.30;;
37069;SDS011;22984;48.862;9.320;2022-11-13T08:19:07;228.87;;;25.90;;
37069;SDS011;22984;48.862;9.320;2022-11-13T08:21:33;300.83;;;26.98;;
37069;SDS011;22984;48.862;9.320;2022-11-13T08:24:00;297.15;;;25.83;;
37069;SDS011;22984;48.862;9.320;2022-11-13T08:26:26;255.45;;;24.88;;
37069;SDS011;22984;48.862;9.320;2022-11-13T08:28:52;117.47;;;19.27;;
37069;SDS011;22984;48.862;9.320;2022-11-13T08:31:18;608.22;;;40.53;;
37069;SDS011;22984;48.862;9.320;2022-11-13T08:33:44;411.33;;;32.35;;
37069;SDS011;22984;48.862;9.320;2022-11-13T08:36:10;473.60;;;32.13;;
37069;SDS011;22984;48.862;9.320;2022-11-13T08:38:36;1031.65;;;58.45;;
37069;SDS011;22984;48.862;9.320;2022-11-13T08:41:03;385.88;;;32.03;;
37069;SDS011;22984;48.862;9.320;2022-11-13T08:43:30;567.40;;;37.53;;
37069;SDS011;22984;48.862;9.320;2022-11-13T08:45:56;447.15;;;32.80;;
37069;SDS011;22984;48.862;9.320;2022-11-13T08:48:22;441.73;;;35.10;;
37069;SDS011;22984;48.862;9.320;2022-11-13T08:50:52;368.55;;;31.33;;
37069;SDS011;22984;48.862;9.320;2022-11-13T08:53:18;310.17;;;24.70;;
37069;SDS011;22984;48.862;9.320;2022-11-13T08:55:44;230.40;;;21.73;;
37069;SDS011;22984;48.862;9.320;2022-11-13T08:58:11;416.33;;;29.63;;
37069;SDS011;22984;48.862;9.320;2022-11-13T09:00:37;273.52;;;23.77;;
37069;SDS011;22984;48.862;9.320;2022-11-13T09:03:03;554.65;;;37.70;;
37069;SDS011;22984;48.862;9.320;2022-11-13T09:05:29;398.52;;;29.92;;
37069;SDS011;22984;48.862;9.320;2022-11-13T09:07:58;452.80;;;40.88;;
37069;SDS011;22984;48.862;9.320;2022-11-13T09:10:25;541.47;;;42.42;;
37069;SDS011;22984;48.862;9.320;2022-11-13T09:12:57;512.27;;;36.83;;
37069;SDS011;22984;48.862;9.320;2022-11-13T09:15:25;230.13;;;27.75;;
37069;SDS011;22984;48.862;9.320;2022-11-13T09:17:54;664.15;;;44.85;;
37069;SDS011;22984;48.862;9.320;2022-11-13T09:20:20;485.15;;;36.90;;
37069;SDS011;22984;48.862;9.320;2022-11-13T09:22:46;310.77;;;26.02;;
37069;SDS011;22984;48.862;9.320;2022-11-13T09:25:12;571.92;;;44.17;;
37069;SDS011;22984;48.862;9.320;2022-11-13T09:27:39;668.80;;;44.33;;
37069;SDS011;22984;48.862;9.320;2022-11-13T09:30:05;332.52;;;32.53;;
37069;SDS011;22984;48.862;9.320;2022-11-13T09:32:31;162.75;;;24.30;;
37069;SDS011;22984;48.862;9.320;2022-11-13T09:34:57;407.17;;;29.55;;
37069;SDS011;22984;48.862;9.320;2022-11-13T09:37:23;267.77;;;28.67;;
37069;SDS011;22984;48.862;9.320;2022-11-13T09:39:49;593.22;;;40.13;;
37069;SDS011;22984;48.862;9.320;2022-11-13T09:42:17;102.68;;;21.52;;
37069;SDS011;22984;48.862;9.320;2022-11-13T09:44:46;43.22;;;18.00;;
37069;SDS011;22984;48.862;9.320;2022-11-13T09:47:18;39.28;;;18.42;;
37069;SDS011;22984;48.862;9.320;2022-11-13T09:49:46;84.00;;;18.45;;
37069;SDS011;22984;48.862;9.320;2022-11-13T09:52:15;77.38;;;16.58;;
37069;SDS011;22984;48.862;9.320;2022-11-13T09:54:42;19.83;;;14.75;;
37069;SDS011;22984;48.862;9.320;2022-11-13T09:59:58;334.95;;;25.42;;
37069;SDS011;22984;48.862;9.320;2022-11-13T10:07:56;41.55;;;16.50;;
37069;SDS011;22984;48.862;9.320;2022-11-13T10:10:45;99.47;;;16.55;;
37069;SDS011;22984;48.862;9.320;2022-11-13T10:13:14;30.00;;;15.30;;
37069;SDS011;22984;48.862;9.320;2022-11-13T10:15:42;243.20;;;20.47;;
37069;SDS011;22984;48.862;9.320;2022-11-13T10:23:30;48.73;;;16.60;;
37069;SDS011;22984;48.862;9.320;2022-11-13T10:25:59;32.88;;;19.20;;
37069;SDS011;22984;48.862;9.320;2022-11-13T10:28:30;88.28;;;15.90;;
37069;SDS011;22984;48.862;9.320;2022-11-13T10:30:56;27.33;;;15.23;;
37069;SDS011;22984;48.862;9.320;2022-11-13T10:33:22;18.63;;;15.48;;
37069;SDS011;22984;48.862;9.320;2022-11-13T10:36:33;22.98;;;14.13;;
37069;SDS011;22984;48.862;9.320;2022-11-13T10:38:43;21.63;;;15.63;;
37069;SDS011;22984;48.862;9.320;2022-11-13T10:43:47;51.80;;;14.70;;
37069;SDS011;22984;48.862;9.320;2022-11-13T10:46:23;14.82;;;13.40;;
37069;SDS011;22984;48.862;9.320;2022-11-13T10:48:50;14.73;;;13.25;;
37069;SDS011;22984;48.862;9.320;2022-11-13T10:53:45;12.20;;;11.10;;
37069;SDS011;22984;48.862;9.320;2022-11-13T10:56:31;12.15;;;10.98;;
37069;SDS011;22984;48.862;9.320;2022-11-13T11:01:26;13.27;;;12.10;;
37069;SDS011;22984;48.862;9.320;2022-11-13T11:03:52;13.93;;;12.63;;
37069;SDS011;22984;48.862;9.320;2022-11-13T11:06:29;12.30;;;11.20;;
37069;SDS011;22984;48.862;9.320;2022-11-13T11:09:06;12.80;;;11.70;;
37069;SDS011;22984;48.862;9.320;2022-11-13T11:11:32;14.10;;;12.70;;
37069;SDS011;22984;48.862;9.320;2022-11-13T11:16:43;14.13;;;12.60;;
37069;SDS011;22984;48.862;9.320;2022-11-13T11:19:10;12.70;;;11.52;;
37069;SDS011;22984;48.862;9.320;2022-11-13T11:21:37;13.05;;;11.75;;
37069;SDS011;22984;48.862;9.320;2022-11-13T11:24:10;12.00;;;11.00;;
37069;SDS011;22984;48.862;9.320;2022-11-13T11:31:50;9.43;;;8.65;;
37069;SDS011;22984;48.862;9.320;2022-11-13T11:37:06;8.70;;;8.13;;
37069;SDS011;22984;48.862;9.320;2022-11-13T11:47:14;7.80;;;7.40;;
37069;SDS011;22984;48.862;9.320;2022-11-13T11:49:42;7.05;;;6.65;;
37069;SDS011;22984;48.862;9.320;2022-11-13T11:54:59;8.02;;;7.53;;
37069;SDS011;22984;48.862;9.320;2022-11-13T12:07:45;9.10;;;8.50;;
37069;SDS011;22984;48.862;9.320;2022-11-13T12:12:54;8.95;;;8.35;;
37069;SDS011;22984;48.862;9.320;2022-11-13T12:18:13;9.67;;;8.87;;
37069;SDS011;22984;48.862;9.320;2022-11-13T12:20:46;8.80;;;8.30;;
37069;SDS011;22984;48.862;9.320;2022-11-13T12:28:16;7.90;;;7.40;;
37069;SDS011;22984;48.862;9.320;2022-11-13T12:33:33;7.82;;;7.43;;
37069;SDS011;22984;48.862;9.320;2022-11-13T12:36:02;7.05;;;6.70;;
37069;SDS011;22984;48.862;9.320;2022-11-13T12:41:49;7.43;;;6.93;;
37069;SDS011;22984;48.862;9.320;2022-11-13T12:46:16;7.85;;;7.38;;
37069;SDS011;22984;48.862;9.320;2022-11-13T12:48:43;7.50;;;7.10;;
37069;SDS011;22984;48.862;9.320;2022-11-13T12:51:11;8.10;;;7.60;;
37069;SDS011;22984;48.862;9.320;2022-11-13T12:56:14;7.25;;;6.82;;
37069;SDS011;22984;48.862;9.320;2022-11-13T12:58:44;6.85;;;6.55;;
37069;SDS011;22984;48.862;9.320;2022-11-13T13:01:17;7.60;;;7.13;;
37069;SDS011;22984;48.862;9.320;2022-11-13T13:06:23;6.13;;;5.83;;
37069;SDS011;22984;48.862;9.320;2022-11-13T13:11:40;6.97;;;6.57;;
37069;SDS011;22984;48.862;9.320;2022-11-13T13:14:28;10.65;;;7.43;;
37069;SDS011;22984;48.862;9.320;2022-11-13T13:17:05;7.10;;;6.70;;
37069;SDS011;22984;48.862;9.320;2022-11-13T13:19:31;5.78;;;5.47;;
37069;SDS011;22984;48.862;9.320;2022-11-13T13:21:58;6.20;;;5.90;;
37069;SDS011;22984;48.862;9.320;2022-11-13T13:26:50;6.40;;;6.00;;
37069;SDS011;22984;48.862;9.320;2022-11-13T13:29:18;6.22;;;5.82;;
37069;SDS011;22984;48.862;9.320;2022-11-13T13:31:51;6.65;;;6.25;;
37069;SDS011;22984;48.862;9.320;2022-11-13T13:34:21;6.80;;;6.50;;
37069;SDS011;22984;48.862;9.320;2022-11-13T13:39:56;6.07;;;5.77;;
37069;SDS011;22984;48.862;9.320;2022-11-13T13:47:53;6.18;;;5.70;;
37069;SDS011;22984;48.862;9.320;2022-11-13T13:50:29;6.60;;;6.10;;
37069;SDS011;22984;48.862;9.320;2022-11-13T13:52:57;6.35;;;6.05;;
37069;SDS011;22984;48.862;9.320;2022-11-13T13:55:30;7.10;;;6.63;;
37069;SDS011;22984;48.862;9.320;2022-11-13T13:58:11;6.93;;;6.55;;
37069;SDS011;22984;48.862;9.320;2022-11-13T14:01:01;9.38;;;8.57;;
37069;SDS011;22984;48.862;9.320;2022-11-13T14:03:33;6.93;;;6.45;;
37069;SDS011;22984;48.862;9.320;2022-11-13T14:06:13;6.45;;;6.00;;
37069;SDS011;22984;48.862;9.320;2022-11-13T14:08:43;6.40;;;6.00;;
37069;SDS011;22984;48.862;9.320;2022-11-13T14:11:17;6.33;;;5.83;;
37069;SDS011;22984;48.862;9.320;2022-11-13T14:13:44;7.07;;;6.68;;
37069;SDS011;22984;48.862;9.320;2022-11-13T14:16:11;7.03;;;6.63;;
37069;SDS011;22984;48.862;9.320;2022-11-13T14:18:41;6.55;;;6.15;;
37069;SDS011;22984;48.862;9.320;2022-11-13T14:21:10;7.00;;;6.60;;
37069;SDS011;22984;48.862;9.320;2022-11-13T14:23:41;7.53;;;7.03;;
37069;SDS011;22984;48.862;9.320;2022-11-13T14:26:09;7.40;;;6.90;;
37069;SDS011;22984;48.862;9.320;2022-11-13T14:31:10;7.95;;;7.35;;
37069;SDS011;22984;48.862;9.320;2022-11-13T14:33:39;7.13;;;6.60;;
37069;SDS011;22984;48.862;9.320;2022-11-13T14:36:08;7.07;;;6.67;;
37069;SDS011;22984;48.862;9.320;2022-11-13T14:38:34;7.07;;;6.63;;
37069;SDS011;22984;48.862;9.320;2022-11-13T14:41:01;7.60;;;7.00;;
37069;SDS011;22984;48.862;9.320;2022-11-13T14:43:31;7.07;;;6.35;;
37069;SDS011;22984;48.862;9.320;2022-11-13T14:45:59;7.65;;;7.15;;
37069;SDS011;22984;48.862;9.320;2022-11-13T14:48:29;7.20;;;6.80;;
37069;SDS011;22984;48.862;9.320;2022-11-13T14:53:40;8.30;;;7.70;;
37069;SDS011;22984;48.862;9.320;2022-11-13T14:56:07;6.88;;;6.50;;
37069;SDS011;22984;48.862;9.320;2022-11-13T14:58:38;7.33;;;6.83;;
37069;SDS011;22984;48.862;9.320;2022-11-13T15:01:14;6.70;;;6.25;;
37069;SDS011;22984;48.862;9.320;2022-11-13T15:03:41;6.65;;;6.15;;
37069;SDS011;22984;48.862;9.320;2022-11-13T15:08:40;7.50;;;7.00;;
37069;SDS011;22984;48.862;9.320;2022-11-13T15:11:07;7.87;;;6.87;;
37069;SDS011;22984;48.862;9.320;2022-11-13T15:13:33;8.77;;;7.22;;
37069;SDS011;22984;48.862;9.320;2022-11-13T15:15:59;8.00;;;7.35;;
37069;SDS011;22984;48.862;9.320;2022-11-13T15:18:25;8.00;;;7.40;;
37069;SDS011;22984;48.862;9.320;2022-11-13T15:20:51;9.85;;;8.52;;
37069;SDS011;22984;48.862;9.320;2022-11-13T15:23:18;10.80;;;9.07;;
37069;SDS011;22984;48.862;9.320;2022-11-13T15:25:45;12.52;;;9.43;;
37069;SDS011;22984;48.862;9.320;2022-11-13T15:28:11;11.80;;;10.05;;
37069;SDS011;22984;48.862;9.320;2022-11-13T15:30:37;13.50;;;10.75;;
37069;SDS011;22984;48.862;9.320;2022-11-13T15:33:08;19.53;;;12.37;;
37069;SDS011;22984;48.862;9.320;2022-11-13T15:35:34;29.45;;;14.73;;
37069;SDS011;22984;48.862;9.320;2022-11-13T15:38:00;27.67;;;14.55;;
37069;SDS011;22984;48.862;9.320;2022-11-13T15:40:26;27.10;;;15.10;;
37069;SDS011;22984;48.862;9.320;2022-11-13T15:42:52;21.50;;;13.93;;
37069;SDS011;22984;48.862;9.320;2022-11-13T15:45:19;27.77;;;15.43;;
37069;SDS011;22984;48.862;9.320;2022-11-13T15:47:45;25.13;;;14.70;;
37069;SDS011;22984;48.862;9.320;2022-11-13T15:50:11;28.23;;;15.73;;
37069;SDS011;22984;48.862;9.320;2022-11-13T15:52:38;55.13;;;21.98;;
37069;SDS011;22984;48.862;9.320;2022-11-13T15:58:00;25.05;;;18.40;;
37069;SDS011;22984;48.862;9.320;2022-11-13T16:00:27;27.98;;;14.82;;
37069;SDS011;22984;48.862;9.320;2022-11-13T16:02:54;24.23;;;18.90;;
37069;SDS011;22984;48.862;9.320;2022-11-13T16:05:25;16.77;;;14.35;;
37069;SDS011;22984;48.862;9.320;2022-11-13T16:07:53;14.70;;;13.20;;
37069;SDS011;22984;48.862;9.320;2022-11-13T16:10:22;15.97;;;13.90;;
37069;SDS011;22984;48.862;9.320;2022-11-13T16:12:51;15.18;;;13.60;;
37069;SDS011;22984;48.862;9.320;2022-11-13T16:15:18;18.67;;;15.57;;